createdAt,value
2023-12-23T00:01:17.893Z,7.22
2023-12-23T00:02:51.871Z,9.43
2023-12-23T00:04:25.280Z,7.82
2023-12-23T00:05:57.819Z,8.32
2023-12-23T00:07:31.115Z,8.98
2023-12-23T00:09:03.360Z,7.43
2023-12-23T00:10:36.665Z,5.30
2023-12-23T00:12:10.224Z,3.22
2023-12-23T00:13:43.603Z,2.30
2023-12-23T00:15:15.918Z,4.25
2023-12-23T00:16:49.403Z,2.88
2023-12-23T00:18:23.479Z,1.75
2023-12-23T00:19:57.904Z,3.30
2023-12-23T00:21:31.347Z,3.05
2023-12-23T00:23:04.769Z,2.75
2023-12-23T00:24:37.906Z,3.20
2023-12-23T00:26:11.229Z,2.05
2023-12-23T00:27:48.506Z,7.30
2023-12-23T00:29:21.869Z,9.27
2023-12-23T00:30:54.594Z,8.90
2023-12-23T00:32:27.856Z,10.48
2023-12-23T00:34:01.641Z,7.18
2023-12-23T00:35:34.917Z,7.82
2023-12-23T00:37:07.773Z,7.68
2023-12-23T00:38:40.981Z,5.30
2023-12-23T00:40:13.695Z,5.32
2023-12-23T00:41:46.948Z,3.60
2023-12-23T00:43:19.469Z,4.68
2023-12-23T00:44:52.797Z,6.28
2023-12-23T00:46:25.317Z,3.92
2023-12-23T00:47:58.750Z,4.20
2023-12-23T00:49:32.897Z,4.28
2023-12-23T00:51:08.730Z,4.63
2023-12-23T00:52:40.982Z,5.20
2023-12-23T00:54:14.335Z,4.00
2023-12-23T00:55:46.759Z,4.80
2023-12-23T00:57:20.035Z,3.97
2023-12-23T00:58:52.290Z,5.45
2023-12-23T01:00:25.673Z,3.33
2023-12-23T01:01:58.187Z,3.33
2023-12-23T01:03:31.483Z,3.10
2023-12-23T01:05:06.039Z,3.58
2023-12-23T01:06:39.411Z,4.15
2023-12-23T01:08:11.965Z,5.68
2023-12-23T01:09:45.212Z,6.38
2023-12-23T01:11:17.725Z,8.70
2023-12-23T01:12:50.914Z,8.77
2023-12-23T01:14:24.617Z,7.50
2023-12-23T01:15:56.861Z,5.13
2023-12-23T01:17:30.149Z,4.78
2023-12-23T01:19:02.434Z,3.72
2023-12-23T01:20:39.602Z,3.42
2023-12-23T01:22:11.869Z,7.78
2023-12-23T01:23:45.114Z,7.53
2023-12-23T01:25:17.393Z,3.72
2023-12-23T01:26:51.227Z,5.40
2023-12-23T01:28:23.450Z,4.15
2023-12-23T01:29:57.760Z,4.30
2023-12-23T01:31:31.053Z,3.55
2023-12-23T01:33:05.048Z,5.38
2023-12-23T01:34:39.616Z,3.22
2023-12-23T01:36:13.249Z,3.80
2023-12-23T01:37:46.901Z,6.22
2023-12-23T01:39:19.955Z,7.07
2023-12-23T01:40:53.290Z,9.60
2023-12-23T01:42:25.630Z,6.78
2023-12-23T01:43:58.975Z,4.40
2023-12-23T01:45:32.385Z,5.60
2023-12-23T01:47:08.272Z,3.60
2023-12-23T01:48:43.935Z,2.30
2023-12-23T01:50:20.428Z,2.85
2023-12-23T01:51:56.256Z,5.00
2023-12-23T01:53:30.046Z,4.72
2023-12-23T01:55:02.637Z,5.22
2023-12-23T01:56:36.658Z,4.28
2023-12-23T01:58:09.143Z,3.17
2023-12-23T01:59:42.471Z,3.42
2023-12-23T02:01:14.883Z,3.55
2023-12-23T02:02:49.426Z,2.63
2023-12-23T02:04:22.581Z,1.90
2023-12-23T02:05:56.239Z,2.63
2023-12-23T02:07:29.849Z,3.08
2023-12-23T02:09:03.955Z,2.88
2023-12-23T02:10:36.334Z,4.03
2023-12-23T02:12:21.401Z,4.13
2023-12-23T02:14:03.242Z,3.55
2023-12-23T02:15:38.453Z,2.70
2023-12-23T02:17:12.234Z,2.10
2023-12-23T02:18:46.703Z,2.58
2023-12-23T02:20:20.104Z,4.38
2023-12-23T02:21:53.989Z,9.23
2023-12-23T02:23:27.425Z,7.90
2023-12-23T02:25:00.094Z,13.52
2023-12-23T02:26:36.181Z,8.30
2023-12-23T02:28:13.533Z,4.53
2023-12-23T02:29:48.641Z,3.40
2023-12-23T02:31:22.552Z,7.25
2023-12-23T02:32:56.515Z,6.18
2023-12-23T02:34:30.614Z,4.90
2023-12-23T02:36:03.806Z,5.00
2023-12-23T02:37:37.431Z,5.38
2023-12-23T02:39:13.691Z,3.35
2023-12-23T02:40:47.559Z,4.55
2023-12-23T02:42:20.826Z,4.65
2023-12-23T02:43:53.118Z,5.35
2023-12-23T02:45:26.448Z,5.88
2023-12-23T02:46:59.868Z,3.17
2023-12-23T02:48:33.290Z,4.75
2023-12-23T02:50:06.550Z,9.30
2023-12-23T02:51:39.783Z,9.68
2023-12-23T02:53:14.729Z,9.20
2023-12-23T02:54:47.083Z,6.45
2023-12-23T02:56:20.433Z,5.50
2023-12-23T02:57:52.737Z,4.93
2023-12-23T02:59:26.243Z,4.50
2023-12-23T03:00:58.826Z,5.07
2023-12-23T03:02:32.125Z,5.75
2023-12-23T03:04:04.524Z,6.70
2023-12-23T03:05:38.272Z,6.70
2023-12-23T03:07:10.886Z,5.32
2023-12-23T03:08:45.479Z,6.22
2023-12-23T03:10:17.877Z,5.82
2023-12-23T03:11:51.239Z,5.97
2023-12-23T03:13:23.452Z,5.05
2023-12-23T03:14:56.764Z,5.15
2023-12-23T03:16:35.168Z,3.40
2023-12-23T03:18:08.672Z,2.10
2023-12-23T03:19:42.267Z,2.63
2023-12-23T03:21:15.654Z,4.68
2023-12-23T03:22:48.110Z,4.97
2023-12-23T03:24:23.012Z,4.50
2023-12-23T03:25:55.470Z,4.47
2023-12-23T03:27:28.950Z,3.47
2023-12-23T03:29:01.197Z,1.92
2023-12-23T03:30:34.779Z,2.65
2023-12-23T03:32:08.640Z,3.25
2023-12-23T03:33:43.284Z,2.60
2023-12-23T03:35:16.711Z,1.83
2023-12-23T03:36:49.133Z,2.05
2023-12-23T03:38:23.302Z,2.13
2023-12-23T03:39:58.162Z,1.90
2023-12-23T03:41:31.433Z,1.90
2023-12-23T03:43:03.939Z,2.60
2023-12-23T03:44:37.243Z,2.38
2023-12-23T03:46:10.805Z,2.90
2023-12-23T03:47:44.145Z,2.75
2023-12-23T03:49:16.781Z,1.85
2023-12-23T03:50:50.034Z,3.38
2023-12-23T03:52:22.227Z,3.90
2023-12-23T03:53:55.697Z,3.70
2023-12-23T03:55:33.902Z,4.85
2023-12-23T03:57:07.449Z,11.18
2023-12-23T03:58:40.762Z,10.45
2023-12-23T04:00:15.136Z,7.40
2023-12-23T04:01:47.535Z,4.22
2023-12-23T04:03:20.968Z,7.20
2023-12-23T04:04:53.225Z,7.15
2023-12-23T04:06:28.982Z,4.60
2023-12-23T04:08:01.623Z,5.90
2023-12-23T04:09:35.119Z,6.57
2023-12-23T04:11:09.104Z,7.25
2023-12-23T04:12:42.501Z,5.80
2023-12-23T04:14:14.921Z,5.78
2023-12-23T04:15:48.561Z,6.63
2023-12-23T04:17:21.740Z,8.73
2023-12-23T04:18:55.340Z,9.45
2023-12-23T04:20:29.451Z,7.75
2023-12-23T04:22:03.391Z,7.45
2023-12-23T04:23:36.675Z,8.43
2023-12-23T04:25:09.338Z,8.02
2023-12-23T04:26:44.555Z,7.00
2023-12-23T04:28:21.768Z,6.93
2023-12-23T04:29:55.126Z,6.53
2023-12-23T04:31:27.490Z,6.55
2023-12-23T04:33:01.177Z,5.72
2023-12-23T04:34:33.936Z,7.80
2023-12-23T04:36:08.463Z,7.03
2023-12-23T04:37:43.214Z,8.07
2023-12-23T04:39:17.854Z,9.13
2023-12-23T04:40:50.470Z,9.38
2023-12-23T04:42:25.166Z,11.63
2023-12-23T04:43:58.109Z,22.75
2023-12-23T04:45:31.669Z,20.92
2023-12-23T04:47:04.202Z,29.75
2023-12-23T04:48:37.471Z,34.38
2023-12-23T04:50:11.108Z,25.50
2023-12-23T04:51:45.628Z,25.10
2023-12-23T04:53:19.177Z,37.78
2023-12-23T04:54:51.399Z,38.55
2023-12-23T04:56:24.870Z,32.33
2023-12-23T04:57:58.651Z,32.95
2023-12-23T04:59:31.908Z,34.08
2023-12-23T05:01:04.397Z,32.40
2023-12-23T05:02:37.955Z,27.17
2023-12-23T05:04:10.291Z,20.83
2023-12-23T05:05:43.948Z,26.00
2023-12-23T05:07:16.228Z,24.00
2023-12-23T05:08:49.821Z,13.80
2023-12-23T05:10:22.194Z,26.38
2023-12-23T05:11:55.549Z,21.92
2023-12-23T05:13:29.213Z,8.25
2023-12-23T05:15:02.698Z,17.08
2023-12-23T05:16:35.041Z,7.43
2023-12-23T05:18:08.413Z,13.57
2023-12-23T05:19:41.822Z,12.52
2023-12-23T05:21:15.235Z,6.78
2023-12-23T05:22:47.892Z,14.70
2023-12-23T05:24:21.381Z,15.00
2023-12-23T05:25:54.632Z,7.07
2023-12-23T05:27:28.919Z,7.40
2023-12-23T05:29:02.758Z,6.38
2023-12-23T05:30:37.538Z,5.88
2023-12-23T05:32:09.790Z,4.10
2023-12-23T05:33:44.278Z,4.03
2023-12-23T05:35:16.730Z,4.20
2023-12-23T05:36:49.978Z,3.53
2023-12-23T05:38:22.239Z,5.28
2023-12-23T05:39:55.658Z,6.03
2023-12-23T05:41:28.051Z,6.18
2023-12-23T05:43:04.707Z,6.82
2023-12-23T05:44:38.418Z,7.03
2023-12-23T05:46:11.850Z,6.45
2023-12-23T05:47:44.670Z,7.07
2023-12-23T05:49:20.398Z,24.35
2023-12-23T05:50:53.880Z,25.20
2023-12-23T05:52:27.363Z,17.90
2023-12-23T05:53:59.744Z,34.42
2023-12-23T05:55:34.135Z,33.55
2023-12-23T05:57:06.442Z,34.15
2023-12-23T05:58:39.836Z,33.63
2023-12-23T06:00:15.240Z,37.17
2023-12-23T06:01:48.584Z,37.38
2023-12-23T06:03:20.850Z,35.25
2023-12-23T06:04:54.558Z,33.75
2023-12-23T06:06:27.076Z,24.98
2023-12-23T06:08:00.422Z,24.23
2023-12-23T06:09:32.723Z,18.67
2023-12-23T06:11:07.699Z,29.13
2023-12-23T06:12:41.113Z,26.67
2023-12-23T06:14:13.424Z,27.70
2023-12-23T06:15:48.110Z,28.63
2023-12-23T06:17:20.472Z,61.75
2023-12-23T06:18:54.351Z,69.57
2023-12-23T06:20:26.864Z,79.43
2023-12-23T06:22:00.223Z,75.53
2023-12-23T06:23:32.599Z,80.03
2023-12-23T06:25:07.789Z,75.10
2023-12-23T06:26:42.224Z,66.45
2023-12-23T06:28:16.827Z,59.33
2023-12-23T06:29:49.294Z,71.20
2023-12-23T06:31:25.425Z,68.70
2023-12-23T06:32:57.767Z,59.78
2023-12-23T06:34:31.108Z,57.33
2023-12-23T06:36:03.976Z,50.25
2023-12-23T06:37:37.419Z,53.70
2023-12-23T06:39:09.737Z,53.80
2023-12-23T06:40:43.123Z,54.10
2023-12-23T06:42:15.364Z,73.43
2023-12-23T06:43:52.705Z,70.47
2023-12-23T06:45:26.751Z,54.42
2023-12-23T06:47:00.406Z,44.42
2023-12-23T06:48:34.800Z,48.22
2023-12-23T06:50:08.501Z,37.22
2023-12-23T06:51:41.963Z,37.13
2023-12-23T06:53:14.228Z,42.53
2023-12-23T06:54:47.566Z,31.73
2023-12-23T06:56:22.650Z,26.50
2023-12-23T06:57:56.083Z,20.52
2023-12-23T06:59:29.330Z,19.63
2023-12-23T07:01:01.666Z,18.92
2023-12-23T07:02:36.918Z,19.25
2023-12-23T07:04:09.785Z,17.17
2023-12-23T07:05:43.361Z,16.38
2023-12-23T07:07:15.864Z,18.98
2023-12-23T07:08:49.393Z,14.82
2023-12-23T07:10:22.791Z,14.00
2023-12-23T07:11:55.062Z,13.55
2023-12-23T07:13:28.534Z,15.60
2023-12-23T07:15:01.002Z,15.23
2023-12-23T07:16:34.212Z,14.43
2023-12-23T07:18:08.536Z,13.65
2023-12-23T07:19:41.832Z,11.50
2023-12-23T07:21:14.559Z,12.88
2023-12-23T07:22:48.929Z,13.55
2023-12-23T07:24:21.362Z,13.27
2023-12-23T07:25:54.657Z,21.20
2023-12-23T07:27:28.074Z,11.75
2023-12-23T07:29:00.553Z,2.40
2023-12-23T07:30:33.959Z,1.83
2023-12-23T07:32:07.261Z,1.20
2023-12-23T07:33:42.230Z,1.33
2023-12-23T07:35:14.757Z,1.65
2023-12-23T07:36:48.032Z,2.38
2023-12-23T07:38:20.429Z,2.10
2023-12-23T07:39:54.307Z,1.85
2023-12-23T07:41:26.740Z,1.83
2023-12-23T07:43:00.267Z,2.38
2023-12-23T07:44:37.830Z,1.70
2023-12-23T07:46:11.549Z,3.53
2023-12-23T07:47:43.806Z,1.35
2023-12-23T07:49:18.702Z,3.00
2023-12-23T07:50:52.037Z,4.45
2023-12-23T07:52:24.687Z,1.08
2023-12-23T07:53:58.143Z,2.00
2023-12-23T07:55:30.605Z,0.82
2023-12-23T07:57:03.918Z,1.35
2023-12-23T07:58:38.368Z,1.13
2023-12-23T08:00:13.082Z,1.70
2023-12-23T08:01:49.639Z,1.85
2023-12-23T08:03:25.512Z,5.40
2023-12-23T08:04:59.464Z,3.28
2023-12-23T08:06:32.952Z,3.35
2023-12-23T08:08:06.647Z,2.92
2023-12-23T08:09:39.963Z,5.70
2023-12-23T08:11:12.905Z,7.68
2023-12-23T08:12:51.451Z,10.95
2023-12-23T08:14:23.847Z,2.67
2023-12-23T08:15:57.259Z,6.15
2023-12-23T08:17:30.316Z,3.40
2023-12-23T08:19:03.661Z,6.20
2023-12-23T08:20:37.889Z,4.63
2023-12-23T08:22:11.614Z,7.75
2023-12-23T08:23:44.078Z,4.63
2023-12-23T08:25:17.562Z,9.52
2023-12-23T08:26:49.834Z,5.60
2023-12-23T08:28:23.201Z,4.25
2023-12-23T08:29:55.844Z,3.40
2023-12-23T08:31:29.197Z,8.73
2023-12-23T08:33:01.494Z,8.48
2023-12-23T08:34:34.798Z,3.53
2023-12-23T08:36:09.045Z,1.80
2023-12-23T08:37:42.510Z,8.30
2023-12-23T08:39:14.850Z,7.10
2023-12-23T08:40:48.272Z,7.20
2023-12-23T08:42:20.724Z,11.23
2023-12-23T08:43:54.032Z,3.42
2023-12-23T08:45:27.525Z,7.05
2023-12-23T08:46:59.724Z,6.88
2023-12-23T08:48:33.160Z,3.80
2023-12-23T08:50:06.490Z,5.85
2023-12-23T08:51:41.162Z,5.78
2023-12-23T08:53:13.576Z,7.93
2023-12-23T08:54:46.959Z,8.25
2023-12-23T08:56:19.452Z,4.60
2023-12-23T08:57:52.956Z,3.90
2023-12-23T08:59:25.603Z,4.65
2023-12-23T09:00:59.944Z,3.00
2023-12-23T09:02:32.444Z,5.28
2023-12-23T09:04:06.013Z,2.97
2023-12-23T09:05:39.382Z,3.60
2023-12-23T09:07:13.768Z,3.63
2023-12-23T09:08:47.332Z,5.68
2023-12-23T09:10:19.799Z,1.63
2023-12-23T09:11:53.270Z,1.92
2023-12-23T09:13:25.676Z,1.83
2023-12-23T09:14:58.997Z,1.95
2023-12-23T09:16:31.312Z,1.92
2023-12-23T09:18:05.031Z,3.67
2023-12-23T09:19:37.387Z,2.03
2023-12-23T09:21:10.865Z,1.33
2023-12-23T09:22:45.460Z,0.98
2023-12-23T09:24:19.772Z,3.15
2023-12-23T09:25:54.071Z,4.75
2023-12-23T09:27:27.984Z,2.33
2023-12-23T09:29:01.382Z,1.30
2023-12-23T09:30:33.700Z,0.85
2023-12-23T09:32:07.698Z,3.00
2023-12-23T09:33:40.929Z,3.38
2023-12-23T09:35:14.436Z,1.42
2023-12-23T09:36:47.879Z,1.63
2023-12-23T09:38:22.693Z,1.30
2023-12-23T09:39:55.800Z,0.98
2023-12-23T09:41:29.194Z,1.10
2023-12-23T09:43:01.651Z,2.97
2023-12-23T09:44:35.637Z,3.50
2023-12-23T09:46:09.375Z,1.23
2023-12-23T09:47:44.055Z,0.63
2023-12-23T09:49:16.552Z,1.33
2023-12-23T09:50:49.968Z,2.50
2023-12-23T09:52:22.754Z,1.02
2023-12-23T09:53:59.803Z,1.20
2023-12-23T09:55:32.816Z,1.10
2023-12-23T09:57:06.303Z,1.58
2023-12-23T09:58:38.578Z,4.55
2023-12-23T10:00:13.812Z,3.25
2023-12-23T10:01:46.727Z,5.95
2023-12-23T10:03:23.169Z,2.10
2023-12-23T10:04:55.670Z,0.63
2023-12-23T10:06:29.239Z,2.65
2023-12-23T10:08:01.661Z,0.90
2023-12-23T10:09:36.426Z,0.90
2023-12-23T10:11:08.726Z,0.80
2023-12-23T10:12:42.463Z,1.20
2023-12-23T10:14:14.872Z,2.00
2023-12-23T10:15:48.349Z,1.13
2023-12-23T10:17:20.683Z,0.82
2023-12-23T10:18:54.538Z,0.93
2023-12-23T10:20:27.743Z,0.70
2023-12-23T10:22:04.991Z,1.40
2023-12-23T10:23:38.938Z,1.15
2023-12-23T10:25:12.957Z,1.08
2023-12-23T10:26:48.180Z,1.92
2023-12-23T10:28:22.544Z,0.90
2023-12-23T10:29:58.447Z,0.90
2023-12-23T10:31:32.658Z,0.70
2023-12-23T10:33:08.687Z,10.20
2023-12-23T10:34:44.732Z,3.08
2023-12-23T10:36:21.606Z,2.47
2023-12-23T10:37:58.068Z,3.72
2023-12-23T10:39:36.416Z,1.45
2023-12-23T10:41:19.291Z,1.58
2023-12-23T10:42:53.684Z,1.42
2023-12-23T10:44:29.057Z,2.25
2023-12-23T10:46:02.949Z,3.17
2023-12-23T10:47:37.355Z,1.77
2023-12-23T10:49:11.887Z,4.20
2023-12-23T10:50:48.334Z,3.38
2023-12-23T10:52:21.417Z,2.20
2023-12-23T10:53:56.302Z,1.40
2023-12-23T10:55:30.777Z,2.83
2023-12-23T10:57:07.371Z,0.93
2023-12-23T10:58:40.835Z,3.55
2023-12-23T11:00:15.095Z,3.75
2023-12-23T11:01:49.072Z,2.85
2023-12-23T11:03:22.857Z,3.20
2023-12-23T11:04:57.044Z,2.92
2023-12-23T11:06:32.949Z,1.92
2023-12-23T11:08:14.161Z,4.03
2023-12-23T11:09:54.019Z,3.28
2023-12-23T11:11:27.588Z,1.98
2023-12-23T11:13:02.669Z,2.13
2023-12-23T11:14:35.024Z,3.05
2023-12-23T11:16:11.915Z,0.82
2023-12-23T11:17:44.777Z,1.40
2023-12-23T11:19:19.149Z,2.30
2023-12-23T11:20:51.703Z,1.05
2023-12-23T11:22:26.820Z,2.97
2023-12-23T11:24:01.081Z,1.85
2023-12-23T11:25:39.583Z,3.00
2023-12-23T11:27:30.284Z,2.95
2023-12-23T11:29:07.832Z,12.35
2023-12-23T11:30:47.928Z,4.43
2023-12-23T11:32:21.723Z,2.00
2023-12-23T11:33:54.450Z,5.15
2023-12-23T11:35:28.007Z,6.82
2023-12-23T11:37:00.435Z,3.03
2023-12-23T11:38:48.365Z,3.17
2023-12-23T11:40:21.691Z,2.30
2023-12-23T11:41:55.040Z,0.85
2023-12-23T11:43:27.298Z,0.93
2023-12-23T11:45:02.134Z,1.25
2023-12-23T11:46:37.400Z,3.58
2023-12-23T11:48:11.251Z,1.75
2023-12-23T11:49:46.173Z,1.23
2023-12-23T11:51:18.704Z,2.65
2023-12-23T11:52:52.863Z,1.27
2023-12-23T11:54:25.547Z,1.00
2023-12-23T11:55:59.080Z,0.98
2023-12-23T11:57:31.990Z,1.80
2023-12-23T11:59:06.765Z,1.48
2023-12-23T12:00:42.072Z,1.20
2023-12-23T12:02:15.503Z,1.63
2023-12-23T12:03:48.717Z,1.90
2023-12-23T12:05:22.337Z,1.17
2023-12-23T12:06:56.406Z,0.55
2023-12-23T12:08:31.784Z,1.02
2023-12-23T12:10:05.358Z,0.55
2023-12-23T12:11:38.993Z,0.90
2023-12-23T12:13:12.438Z,1.50
2023-12-23T12:14:44.904Z,1.00
2023-12-23T12:16:19.868Z,1.30
2023-12-23T12:17:53.120Z,1.23
2023-12-23T12:19:26.741Z,1.25
2023-12-23T12:20:59.332Z,1.00
2023-12-23T12:22:33.480Z,0.90
2023-12-23T12:24:06.742Z,0.70
2023-12-23T12:25:40.044Z,0.98
2023-12-23T12:27:12.279Z,1.60
2023-12-23T12:28:47.877Z,1.58
2023-12-23T12:30:20.501Z,1.33
2023-12-23T12:31:56.065Z,1.02
2023-12-23T12:33:28.427Z,0.60
2023-12-23T12:35:05.119Z,0.80
2023-12-23T12:36:37.567Z,1.30
2023-12-23T12:38:17.238Z,2.03
2023-12-23T12:39:56.584Z,1.98
2023-12-23T12:41:30.346Z,1.48
2023-12-23T12:43:06.900Z,1.55
2023-12-23T12:44:41.931Z,0.93
2023-12-23T12:46:16.304Z,0.60
2023-12-23T12:47:52.423Z,0.82
2023-12-23T12:49:25.406Z,1.13
2023-12-23T12:50:59.230Z,0.95
2023-12-23T12:52:31.958Z,1.08
2023-12-23T12:54:06.209Z,1.05
2023-12-23T12:55:38.585Z,1.17
2023-12-23T12:57:11.860Z,0.70
2023-12-23T12:58:46.283Z,1.10
2023-12-23T13:00:22.319Z,1.38
2023-12-23T13:01:55.381Z,0.75
2023-12-23T13:03:30.149Z,1.83
2023-12-23T13:05:02.348Z,2.35
2023-12-23T13:06:35.700Z,5.72
2023-12-23T13:08:08.434Z,1.30
2023-12-23T13:09:42.024Z,12.10
2023-12-23T13:11:15.014Z,0.95
2023-12-23T13:12:48.562Z,6.88
2023-12-23T13:14:22.207Z,4.78
2023-12-23T13:15:54.416Z,5.07
2023-12-23T13:17:27.931Z,2.00
2023-12-23T13:19:01.916Z,2.70
2023-12-23T13:20:35.420Z,4.50
2023-12-23T13:22:08.686Z,4.95
2023-12-23T13:23:41.009Z,2.90
2023-12-23T13:25:14.562Z,1.83
2023-12-23T13:26:46.949Z,2.05
2023-12-23T13:28:20.449Z,3.08
2023-12-23T13:29:52.792Z,4.57
2023-12-23T13:31:26.033Z,1.40
2023-12-23T13:32:58.485Z,2.58
2023-12-23T13:34:33.537Z,2.60
2023-12-23T13:36:06.319Z,2.97
2023-12-23T13:37:41.456Z,3.45
2023-12-23T13:39:14.493Z,6.90
2023-12-23T13:40:49.797Z,2.72
2023-12-23T13:42:22.607Z,1.90
2023-12-23T13:43:56.380Z,2.00
2023-12-23T13:45:29.415Z,3.03
2023-12-23T13:47:03.736Z,1.90
2023-12-23T13:48:37.128Z,0.80
2023-12-23T13:50:12.253Z,1.17
2023-12-23T13:51:45.766Z,1.52
2023-12-23T13:53:18.114Z,1.60
2023-12-23T13:54:51.465Z,1.02
2023-12-23T13:56:23.744Z,0.70
2023-12-23T13:57:57.251Z,1.33
2023-12-23T13:59:29.529Z,0.65
2023-12-23T14:01:03.300Z,0.85
2023-12-23T14:02:35.624Z,6.65
2023-12-23T14:04:08.911Z,4.38
2023-12-23T14:05:44.227Z,1.50
2023-12-23T14:07:17.556Z,1.92
2023-12-23T14:08:49.818Z,1.80
2023-12-23T14:10:23.165Z,1.55
2023-12-23T14:11:55.462Z,0.70
2023-12-23T14:13:28.720Z,1.25
2023-12-23T14:15:01.158Z,0.98
2023-12-23T14:16:35.792Z,1.98
2023-12-23T14:18:08.815Z,0.40
2023-12-23T14:19:42.087Z,0.95
2023-12-23T14:21:15.813Z,1.13
2023-12-23T14:22:49.412Z,1.95
2023-12-23T14:24:21.979Z,1.02
2023-12-23T14:25:55.287Z,0.63
2023-12-23T14:27:28.640Z,1.98
2023-12-23T14:29:01.100Z,0.82
2023-12-23T14:30:35.617Z,1.05
2023-12-23T14:32:07.889Z,1.40
2023-12-23T14:33:43.458Z,1.80
2023-12-23T14:35:16.273Z,1.40
2023-12-23T14:36:50.867Z,2.03
2023-12-23T14:38:23.195Z,9.10
2023-12-23T14:39:56.520Z,12.02
2023-12-23T14:41:29.945Z,7.15
2023-12-23T14:43:03.446Z,3.67
2023-12-23T14:44:36.277Z,2.17
2023-12-23T14:46:10.221Z,0.95
2023-12-23T14:47:43.502Z,2.92
2023-12-23T14:49:17.407Z,1.45
2023-12-23T14:50:49.712Z,1.33
2023-12-23T14:52:24.459Z,1.80
2023-12-23T14:53:57.026Z,1.05
2023-12-23T14:55:30.358Z,2.17
2023-12-23T14:57:02.791Z,2.75
2023-12-23T14:58:36.241Z,1.95
2023-12-23T15:00:11.056Z,2.25
2023-12-23T15:01:44.699Z,1.50
2023-12-23T15:03:18.275Z,1.55
2023-12-23T15:04:50.738Z,1.10
2023-12-23T15:06:24.258Z,0.80
2023-12-23T15:07:58.243Z,0.90
2023-12-23T15:09:31.797Z,0.90
2023-12-23T15:11:05.437Z,1.00
2023-12-23T15:12:39.415Z,1.40
2023-12-23T15:14:11.728Z,9.43
2023-12-23T15:15:45.192Z,2.92
2023-12-23T15:17:18.088Z,1.13
2023-12-23T15:18:53.675Z,1.25
2023-12-23T15:20:26.869Z,3.90
2023-12-23T15:22:00.538Z,3.95
2023-12-23T15:23:35.349Z,2.70
2023-12-23T15:25:09.333Z,3.05
2023-12-23T15:26:41.951Z,2.80
2023-12-23T15:28:15.238Z,1.45
2023-12-23T15:29:47.556Z,0.95
2023-12-23T15:31:21.040Z,1.80
2023-12-23T15:32:53.765Z,1.42
2023-12-23T15:34:27.423Z,1.70
2023-12-23T15:35:59.713Z,1.73
2023-12-23T15:37:33.242Z,3.00
2023-12-23T15:39:06.932Z,1.92
2023-12-23T15:40:40.298Z,2.38
2023-12-23T15:42:13.559Z,3.13
2023-12-23T15:43:46.204Z,12.68
2023-12-23T15:45:19.659Z,9.55
2023-12-23T15:46:51.969Z,94.97
2023-12-23T15:48:25.746Z,32.92
2023-12-23T15:49:58.172Z,18.35
2023-12-23T15:51:31.544Z,10.25
2023-12-23T15:53:04.761Z,9.15
2023-12-23T15:54:39.716Z,10.23
2023-12-23T15:56:12.473Z,10.35
2023-12-23T15:57:45.779Z,12.57
2023-12-23T15:59:19.005Z,9.05
2023-12-23T16:00:51.397Z,18.48
2023-12-23T16:02:24.739Z,20.60
2023-12-23T16:03:57.104Z,24.48
2023-12-23T16:05:30.398Z,42.60
2023-12-23T16:07:03.053Z,30.75
2023-12-23T16:08:36.518Z,23.23
2023-12-23T16:10:10.737Z,19.27
2023-12-23T16:11:44.109Z,17.65
2023-12-23T16:13:16.502Z,16.13
2023-12-23T16:14:49.840Z,16.63
2023-12-23T16:16:22.260Z,13.25
2023-12-23T16:17:55.558Z,10.88
2023-12-23T16:19:27.819Z,9.35
2023-12-23T16:21:01.298Z,10.95
2023-12-23T16:22:35.408Z,10.05
2023-12-23T16:24:09.075Z,11.23
2023-12-23T16:25:42.786Z,10.95
2023-12-23T16:27:16.197Z,13.63
2023-12-23T16:28:48.559Z,12.45
2023-12-23T16:30:21.852Z,13.07
2023-12-23T16:31:54.195Z,9.80
2023-12-23T16:33:27.640Z,12.23
2023-12-23T16:34:59.998Z,13.15
2023-12-23T16:36:33.312Z,16.48
2023-12-23T16:38:05.690Z,18.05
2023-12-23T16:39:39.147Z,52.90
2023-12-23T16:41:13.295Z,44.30
2023-12-23T16:42:46.665Z,26.75
2023-12-23T16:44:19.180Z,15.07
2023-12-23T16:45:52.578Z,16.25
2023-12-23T16:47:24.872Z,9.48
2023-12-23T16:48:58.382Z,8.18
2023-12-23T16:50:30.741Z,6.05
2023-12-23T16:52:04.270Z,41.03
2023-12-23T16:53:38.290Z,23.40
2023-12-23T16:55:12.019Z,7.40
2023-12-23T16:56:46.835Z,5.47
2023-12-23T16:58:20.479Z,5.03
2023-12-23T16:59:53.919Z,5.13
2023-12-23T17:01:26.286Z,4.43
2023-12-23T17:02:59.561Z,7.00
2023-12-23T17:04:31.926Z,3.75
2023-12-23T17:06:05.287Z,5.50
2023-12-23T17:07:37.556Z,5.82
2023-12-23T17:09:12.055Z,5.00
2023-12-23T17:10:44.421Z,4.70
2023-12-23T17:12:19.194Z,3.08
2023-12-23T17:13:52.437Z,2.40
2023-12-23T17:15:25.237Z,3.20
2023-12-23T17:16:59.721Z,7.00
2023-12-23T17:18:33.419Z,5.13
2023-12-23T17:20:08.082Z,4.88
2023-12-23T17:21:41.399Z,4.25
2023-12-23T17:23:13.817Z,5.05
2023-12-23T17:24:47.223Z,6.25
2023-12-23T17:26:19.838Z,6.22
2023-12-23T17:27:54.574Z,6.20
2023-12-23T17:29:27.075Z,5.60
2023-12-23T17:31:00.563Z,6.68
2023-12-23T17:32:33.880Z,9.50
2023-12-23T17:34:07.376Z,7.35
2023-12-23T17:35:40.724Z,8.68
2023-12-23T17:37:14.202Z,8.85
2023-12-23T17:38:47.460Z,11.07
2023-12-23T17:40:20.758Z,8.52
2023-12-23T17:41:53.517Z,18.33
2023-12-23T17:43:28.175Z,19.83
2023-12-23T17:45:00.462Z,16.73
2023-12-23T17:46:33.758Z,17.55
2023-12-23T17:48:07.768Z,16.88
2023-12-23T17:49:41.011Z,23.05
2023-12-23T17:51:13.424Z,23.13
2023-12-23T17:52:46.768Z,30.65
2023-12-23T17:54:20.179Z,28.33
2023-12-23T17:55:52.823Z,28.60
2023-12-23T17:57:27.556Z,33.22
2023-12-23T17:59:01.334Z,26.67
2023-12-23T18:00:34.781Z,29.52
2023-12-23T18:02:07.078Z,21.35
2023-12-23T18:03:40.332Z,28.58
2023-12-23T18:05:12.860Z,31.38
2023-12-23T18:06:46.275Z,55.42
2023-12-23T18:08:19.578Z,55.70
2023-12-23T18:09:52.049Z,32.95
2023-12-23T18:11:25.501Z,39.13
2023-12-23T18:13:00.965Z,29.88
2023-12-23T18:14:36.049Z,42.17
2023-12-23T18:16:08.907Z,40.05
2023-12-23T18:17:43.040Z,36.03
2023-12-23T18:19:15.599Z,36.85
2023-12-23T18:20:48.839Z,40.33
2023-12-23T18:22:21.792Z,38.17
2023-12-23T18:23:55.055Z,33.08
2023-12-23T18:25:27.730Z,31.42
2023-12-23T18:27:01.491Z,30.95
2023-12-23T18:28:33.917Z,37.28
2023-12-23T18:30:09.957Z,35.17
2023-12-23T18:31:43.358Z,32.35
2023-12-23T18:33:17.445Z,18.98
2023-12-23T18:34:50.214Z,16.30
2023-12-23T18:36:23.647Z,12.52
2023-12-23T18:37:56.122Z,12.77
2023-12-23T18:39:29.409Z,11.30
2023-12-23T18:41:01.644Z,18.17
2023-12-23T18:42:34.860Z,24.98
2023-12-23T18:44:07.520Z,29.50
2023-12-23T18:45:42.157Z,11.68
2023-12-23T18:47:14.428Z,11.35
2023-12-23T18:48:48.568Z,11.98
2023-12-23T18:50:21.312Z,12.25
2023-12-23T18:51:54.769Z,16.17
2023-12-23T18:53:27.094Z,15.50
2023-12-23T18:55:00.457Z,24.88
2023-12-23T18:56:33.141Z,27.52
2023-12-23T18:58:08.519Z,23.10
2023-12-23T18:59:41.978Z,21.80
2023-12-23T19:01:15.783Z,39.17
2023-12-23T19:02:49.932Z,24.33
2023-12-23T19:04:22.440Z,19.38
2023-12-23T19:05:58.553Z,20.88
2023-12-23T19:07:30.876Z,34.97
2023-12-23T19:09:04.361Z,22.05
2023-12-23T19:10:36.584Z,17.73
2023-12-23T19:12:10.644Z,19.27
2023-12-23T19:13:42.811Z,16.60
2023-12-23T19:15:16.356Z,14.60
2023-12-23T19:16:50.618Z,15.85
2023-12-23T19:18:24.570Z,17.98
2023-12-23T19:19:59.123Z,15.95
2023-12-23T19:21:34.269Z,17.75
2023-12-23T19:23:08.859Z,16.83
2023-12-23T19:24:42.402Z,15.27
2023-12-23T19:26:25.585Z,17.45
2023-12-23T19:27:58.072Z,16.75
2023-12-23T19:29:31.498Z,17.90
2023-12-23T19:31:05.096Z,17.65
2023-12-23T19:32:41.738Z,20.13
2023-12-23T19:34:14.281Z,46.38
2023-12-23T19:35:48.637Z,38.88
2023-12-23T19:37:21.048Z,39.20
2023-12-23T19:38:56.014Z,45.13
2023-12-23T19:40:28.416Z,43.50
2023-12-23T19:42:02.867Z,39.97
2023-12-23T19:43:35.214Z,50.03
2023-12-23T19:45:09.732Z,45.25
2023-12-23T19:46:42.228Z,42.90
2023-12-23T19:48:25.850Z,37.22
2023-12-23T19:50:01.140Z,26.35
2023-12-23T19:51:34.833Z,16.92
2023-12-23T19:53:07.401Z,15.98
2023-12-23T19:54:40.694Z,12.57
2023-12-23T19:56:13.926Z,9.30
2023-12-23T19:57:47.246Z,10.05
2023-12-23T19:59:19.786Z,9.05
2023-12-23T20:00:53.089Z,12.32
2023-12-23T20:02:26.009Z,10.95
2023-12-23T20:04:00.820Z,13.15
2023-12-23T20:05:35.118Z,16.38
2023-12-23T20:07:11.069Z,17.70
2023-12-23T20:08:43.437Z,17.70
2023-12-23T20:10:16.855Z,15.30
2023-12-23T20:11:49.169Z,14.55
2023-12-23T20:13:42.527Z,18.20
2023-12-23T20:15:16.855Z,15.93
2023-12-23T20:16:51.994Z,17.25
2023-12-23T20:18:28.707Z,17.17
2023-12-23T20:20:03.447Z,17.08
2023-12-23T20:21:38.146Z,16.75
2023-12-23T20:23:10.410Z,11.10
2023-12-23T20:24:43.691Z,16.70
2023-12-23T20:26:16.150Z,15.65
2023-12-23T20:27:49.557Z,13.40
2023-12-23T20:29:22.354Z,9.50
2023-12-23T20:30:55.649Z,10.43
2023-12-23T20:32:28.818Z,9.07
2023-12-23T20:34:04.714Z,10.07
2023-12-23T20:35:38.477Z,9.07